Time;durP1;ratioP1;P1;durP2;ratioP2;P2;SDS_P1;SDS_P2;PMS_P1;PMS_P2;Temp;Humidity;BMP_temperature;BMP_pressure;BME280_temperature;BME280_humidity;BME280_pressure;Samples;Min_cycle;Max_cycle;Signal;HPM_P1;HPM_P2
2024/01/19 00:02:11;;;;;;;46.13;18.00;;;-0.30;99.90;;;;;;5056410;28;20054;-69
2024/01/19 00:04:36;;;;;;;45.40;17.13;;;-0.10;99.90;;;;;;5056450;28;20027;-69
2024/01/19 00:07:02;;;;;;;50.45;19.30;;;-0.10;99.90;;;;;;5056229;28;20021;-68
2024/01/19 00:09:27;;;;;;;47.90;17.80;;;0.00;99.90;;;;;;5056787;28;20021;-68
2024/01/19 00:11:53;;;;;;;48.70;18.75;;;0.20;99.90;;;;;;5057104;28;20025;-68
2024/01/19 00:14:19;;;;;;;43.03;17.42;;;0.20;99.90;;;;;;5056238;28;20100;-69
2024/01/19 00:16:44;;;;;;;52.05;18.35;;;0.20;99.90;;;;;;5057022;28;20086;-68
2024/01/19 00:19:10;;;;;;;51.60;18.60;;;0.20;99.90;;;;;;5056176;28;20078;-68
2024/01/19 00:21:46;;;;;;;49.03;17.40;;;0.10;99.90;;;;;;5056675;28;20033;-69
2024/01/19 00:24:14;;;;;;;48.85;16.88;;;-0.20;99.90;;;;;;5056835;28;20033;-68
2024/01/19 00:26:40;;;;;;;45.55;16.45;;;-0.60;99.90;;;;;;5056307;28;20024;-68
2024/01/19 00:29:07;;;;;;;37.55;16.10;;;-1.00;99.90;;;;;;5057099;28;20021;-68
2024/01/19 00:31:33;;;;;;;40.00;14.80;;;-1.30;99.90;;;;;;5056688;28;20017;-68
2024/01/19 00:33:59;;;;;;;31.65;12.90;;;-1.50;99.90;;;;;;5056898;28;20033;-68
2024/01/19 00:36:24;;;;;;;29.95;11.63;;;-1.70;99.90;;;;;;5056861;28;20111;-68
2024/01/19 00:38:52;;;;;;;25.58;11.25;;;-1.90;99.90;;;;;;5056836;28;20029;-68
2024/01/19 00:41:18;;;;;;;22.25;10.05;;;-2.20;99.90;;;;;;5056198;28;20092;-68
2024/01/19 00:43:43;;;;;;;27.92;10.80;;;-2.50;99.90;;;;;;5056954;28;20071;-68
2024/01/19 00:46:09;;;;;;;25.67;10.15;;;-2.60;99.90;;;;;;5056876;28;20045;-68
2024/01/19 00:48:35;;;;;;;28.80;11.63;;;-2.70;99.90;;;;;;5056655;28;20029;-68
2024/01/19 00:51:01;;;;;;;30.35;12.32;;;-2.80;99.90;;;;;;5056741;28;20135;-68
2024/01/19 00:53:26;;;;;;;20.27;10.32;;;-2.80;99.90;;;;;;5055838;28;20032;-68
2024/01/19 00:55:52;;;;;;;25.63;11.82;;;-2.90;99.90;;;;;;5056671;28;20021;-68
2024/01/19 00:58:17;;;;;;;21.85;10.07;;;-3.00;99.90;;;;;;5056547;28;20025;-68
2024/01/19 01:00:43;;;;;;;23.25;10.23;;;-3.10;99.90;;;;;;5056732;28;20029;-68
2024/01/19 01:03:09;;;;;;;25.23;9.82;;;-3.30;99.90;;;;;;5060474;28;20106;-68
2024/01/19 01:05:34;;;;;;;21.33;9.45;;;-3.30;99.90;;;;;;5059909;28;20085;-68
2024/01/19 01:08:00;;;;;;;23.10;9.85;;;-3.40;99.90;;;;;;5059480;28;20163;-69
2024/01/19 01:10:25;;;;;;;27.23;10.70;;;-3.40;99.90;;;;;;5059529;28;20024;-68
2024/01/19 01:12:51;;;;;;;28.35;12.65;;;-3.60;99.90;;;;;;5059739;28;20059;-68
2024/01/19 01:15:17;;;;;;;22.30;9.57;;;-3.70;99.90;;;;;;5059497;28;20032;-68
2024/01/19 01:17:43;;;;;;;22.65;9.88;;;-3.80;99.90;;;;;;5060461;28;20028;-68
2024/01/19 01:20:12;;;;;;;24.98;10.10;;;-3.90;99.90;;;;;;5059477;28;20048;-68
2024/01/19 01:22:38;;;;;;;23.42;9.57;;;-4.10;99.90;;;;;;5060149;28;20025;-68
2024/01/19 01:25:04;;;;;;;24.52;10.82;;;-4.30;99.90;;;;;;5059173;28;20021;-68
2024/01/19 01:27:29;;;;;;;28.67;10.05;;;-4.40;99.90;;;;;;5059208;28;20021;-68
2024/01/19 01:29:55;;;;;;;25.77;10.00;;;-4.50;99.90;;;;;;5059945;28;20021;-68
2024/01/19 01:32:20;;;;;;;22.75;9.63;;;-4.50;99.90;;;;;;5060016;28;20029;-68
2024/01/19 01:34:46;;;;;;;25.95;11.40;;;-4.30;99.90;;;;;;5059936;28;20037;-68
2024/01/19 01:37:11;;;;;;;32.30;11.25;;;-4.60;99.90;;;;;;5059874;28;20039;-68
2024/01/19 01:39:37;;;;;;;35.00;11.85;;;-4.40;99.90;;;;;;5058686;28;20036;-68
2024/01/19 01:42:03;;;;;;;28.00;12.15;;;-4.40;99.90;;;;;;5058705;28;20029;-68
2024/01/19 01:44:28;;;;;;;27.38;11.68;;;-4.50;99.90;;;;;;5059127;28;20029;-68
2024/01/19 01:46:54;;;;;;;35.83;13.98;;;-4.60;99.90;;;;;;5058666;28;20063;-68
2024/01/19 01:49:20;;;;;;;36.83;12.70;;;-4.80;99.90;;;;;;5059925;28;20083;-68
2024/01/19 01:51:46;;;;;;;41.28;14.00;;;-4.80;99.90;;;;;;5059103;28;20087;-68
2024/01/19 01:54:14;;;;;;;50.55;14.25;;;-5.10;99.90;;;;;;5059549;28;20060;-68
2024/01/19 01:56:40;;;;;;;45.08;15.85;;;-5.20;99.90;;;;;;5059559;28;20053;-68
2024/01/19 01:59:07;;;;;;;39.90;14.13;;;-5.20;99.90;;;;;;5059743;28;20088;-68
2024/01/19 02:01:32;;;;;;;46.90;14.10;;;-5.10;99.90;;;;;;5058358;28;20116;-68
2024/01/19 02:03:59;;;;;;;37.63;12.35;;;-5.10;99.90;;;;;;5058433;28;20116;-68
2024/01/19 02:06:26;;;;;;;42.70;15.02;;;-5.00;99.90;;;;;;5059369;28;20163;-68
2024/01/19 02:08:52;;;;;;;32.28;13.85;;;-4.90;99.90;;;;;;5059208;28;20036;-68
2024/01/19 02:11:17;;;;;;;32.28;13.45;;;-4.80;99.90;;;;;;5059230;28;20017;-68
2024/01/19 02:13:43;;;;;;;34.83;13.90;;;-4.90;99.90;;;;;;5058565;28;20021;-68
2024/01/19 02:16:08;;;;;;;40.40;14.70;;;-5.00;99.90;;;;;;5059187;28;20024;-68
2024/01/19 02:18:34;;;;;;;32.53;12.63;;;-5.20;99.90;;;;;;5059166;28;20017;-68
2024/01/19 02:21:00;;;;;;;46.95;15.35;;;-5.40;99.90;;;;;;5058075;28;20030;-69
2024/01/19 02:23:29;;;;;;;45.65;15.50;;;-5.60;99.90;;;;;;5058460;28;20116;-68
2024/01/19 02:25:54;;;;;;;41.40;14.20;;;-5.80;99.90;;;;;;5057939;28;20025;-68
2024/01/19 02:28:20;;;;;;;36.28;13.77;;;-5.80;99.90;;;;;;5057916;28;20031;-68
2024/01/19 02:30:46;;;;;;;37.28;13.98;;;-5.80;99.90;;;;;;5057935;28;20043;-68
2024/01/19 02:33:12;;;;;;;38.85;14.13;;;-5.70;99.90;;;;;;5058895;28;20037;-68
2024/01/19 02:35:38;;;;;;;38.70;13.90;;;-5.50;99.90;;;;;;5057944;28;20116;-68
2024/01/19 02:38:03;;;;;;;43.17;14.38;;;-5.40;99.90;;;;;;5057882;28;20111;-68
2024/01/19 02:40:29;;;;;;;38.10;14.43;;;-5.20;99.90;;;;;;5058765;28;20107;-68
2024/01/19 02:42:54;;;;;;;41.90;15.20;;;-5.50;99.90;;;;;;5058727;28;20130;-68
2024/01/19 02:45:20;;;;;;;37.28;15.05;;;-5.30;99.90;;;;;;5058416;28;20020;-68
2024/01/19 02:47:45;;;;;;;36.40;13.75;;;-5.40;99.90;;;;;;5058880;28;20017;-68
2024/01/19 02:50:11;;;;;;;34.83;12.60;;;-5.30;99.90;;;;;;5058599;28;20025;-68
2024/01/19 02:52:36;;;;;;;36.92;13.63;;;-5.40;99.90;;;;;;5058573;28;20021;-68
2024/01/19 02:55:04;;;;;;;40.28;14.38;;;-5.60;99.90;;;;;;5057445;28;20033;-68
2024/01/19 02:57:29;;;;;;;44.70;15.10;;;-5.70;99.90;;;;;;5057509;28;20025;-68
2024/01/19 02:59:55;;;;;;;40.55;14.38;;;-5.80;99.90;;;;;;5057407;28;20017;-68
2024/01/19 03:02:20;;;;;;;39.72;14.38;;;-5.90;99.90;;;;;;5057311;28;20025;-68
2024/01/19 03:04:46;;;;;;;41.03;14.68;;;-6.00;99.90;;;;;;5057101;28;20078;-68
2024/01/19 03:07:12;;;;;;;44.25;15.95;;;-6.30;99.90;;;;;;5057489;28;20025;-68
2024/01/19 03:09:38;;;;;;;45.45;16.73;;;-6.50;99.90;;;;;;5058221;28;20021;-68
2024/01/19 03:12:04;;;;;;;43.70;16.30;;;-6.60;99.90;;;;;;5057071;28;20021;-68
2024/01/19 03:14:32;;;;;;;81.40;17.35;;;-6.60;99.90;;;;;;5057138;28;20025;-68
2024/01/19 03:16:58;;;;;;;48.85;16.85;;;-6.80;99.90;;;;;;5057977;28;20029;-68
2024/01/19 03:19:23;;;;;;;68.60;19.77;;;-6.80;99.90;;;;;;5058281;28;20032;-68
2024/01/19 03:21:50;;;;;;;57.53;18.20;;;-6.80;99.90;;;;;;5057493;28;20021;-68
2024/01/19 03:24:16;;;;;;;56.15;17.60;;;-6.70;99.90;;;;;;5057270;28;20043;-68
2024/01/19 03:26:42;;;;;;;65.97;19.02;;;-6.70;99.90;;;;;;5057792;28;20021;-68
2024/01/19 03:29:08;;;;;;;64.47;19.38;;;-6.40;99.90;;;;;;5057262;28;20024;-68
2024/01/19 03:31:34;;;;;;;59.78;17.52;;;-6.30;99.90;;;;;;5056656;28;20021;-68
2024/01/19 03:34:00;;;;;;;45.17;16.20;;;-6.30;99.90;;;;;;5057879;28;20032;-68
2024/01/19 03:36:25;;;;;;;52.08;16.45;;;-6.20;99.90;;;;;;5056720;28;20035;-68
2024/01/19 03:38:51;;;;;;;59.50;18.90;;;-6.20;99.90;;;;;;5056795;28;20036;-68
2024/01/19 03:41:16;;;;;;;47.75;16.83;;;-6.30;99.90;;;;;;5057944;28;20047;-68
2024/01/19 03:43:43;;;;;;;52.38;18.33;;;-6.50;99.90;;;;;;5057433;28;20040;-68
2024/01/19 03:46:09;;;;;;;62.70;19.05;;;-6.60;99.90;;;;;;5056953;28;20060;-68
2024/01/19 03:48:34;;;;;;;56.97;17.95;;;-6.60;99.90;;;;;;5056677;28;20028;-68
2024/01/19 03:51:00;;;;;;;82.13;19.55;;;-6.60;99.90;;;;;;5056307;28;20037;-68
2024/01/19 03:53:26;;;;;;;69.05;18.65;;;-7.00;99.90;;;;;;5056518;28;20104;-68
2024/01/19 03:55:51;;;;;;;113.10;23.05;;;-7.10;99.90;;;;;;5056483;28;20029;-68
2024/01/19 03:58:17;;;;;;;49.50;17.58;;;-6.90;99.90;;;;;;5057186;28;20025;-68
2024/01/19 04:00:42;;;;;;;63.10;18.70;;;-6.80;99.90;;;;;;5057139;28;20033;-68
2024/01/19 04:03:08;;;;;;;61.42;18.92;;;-6.80;99.90;;;;;;5056315;28;20024;-68
2024/01/19 04:05:33;;;;;;;63.83;18.30;;;-6.50;99.90;;;;;;5057004;28;20032;-68
2024/01/19 04:07:59;;;;;;;54.28;17.08;;;-6.40;99.90;;;;;;5056656;28;20034;-68
2024/01/19 04:10:24;;;;;;;96.10;22.63;;;-6.20;99.90;;;;;;5057061;28;20029;-68
2024/01/19 04:12:51;;;;;;;120.75;24.55;;;-6.20;99.90;;;;;;5056989;28;20021;-68
2024/01/19 04:15:17;;;;;;;95.72;19.67;;;-6.40;99.90;;;;;;5056950;28;20116;-68
2024/01/19 04:17:43;;;;;;;64.43;18.42;;;-6.50;99.90;;;;;;5056841;28;20064;-68
2024/01/19 04:20:08;;;;;;;64.03;19.85;;;-6.50;99.90;;;;;;5056137;28;20048;-68
2024/01/19 04:22:34;;;;;;;64.88;18.00;;;-6.70;99.90;;;;;;5056833;28;20029;-68
2024/01/19 04:24:59;;;;;;;58.13;17.45;;;-6.80;99.90;;;;;;5056848;28;20143;-68
2024/01/19 04:27:25;;;;;;;81.30;18.48;;;-6.40;99.90;;;;;;5056917;28;20025;-68
2024/01/19 04:29:50;;;;;;;68.20;20.70;;;-6.30;99.90;;;;;;5055942;28;20025;-68
2024/01/19 04:32:16;;;;;;;57.53;17.17;;;-6.20;99.90;;;;;;5057050;28;20017;-68
2024/01/19 04:34:41;;;;;;;54.45;17.00;;;-6.40;99.90;;;;;;5056905;28;20029;-68
2024/01/19 04:37:07;;;;;;;52.80;17.30;;;-6.30;99.90;;;;;;5059524;28;20025;-68
2024/01/19 04:39:33;;;;;;;51.45;18.85;;;-6.20;99.90;;;;;;5059914;28;20035;-68
2024/01/19 04:41:58;;;;;;;89.13;21.95;;;-6.30;99.90;;;;;;5059918;28;20028;-68
2024/01/19 04:44:24;;;;;;;68.50;19.80;;;-6.50;99.90;;;;;;5060129;28;20036;-68
2024/01/19 04:46:49;;;;;;;85.57;21.50;;;-6.60;99.90;;;;;;5061114;28;20032;-68
2024/01/19 04:49:15;;;;;;;67.38;20.67;;;-6.60;99.90;;;;;;5060070;28;20017;-68
2024/01/19 04:51:40;;;;;;;115.05;26.63;;;-6.70;99.90;;;;;;5059865;28;20043;-68
2024/01/19 04:54:06;;;;;;;92.00;24.27;;;-7.00;99.90;;;;;;5059709;28;20030;-69
2024/01/19 04:56:33;;;;;;;102.70;26.42;;;-7.00;99.90;;;;;;5059735;28;20029;-68
2024/01/19 04:58:59;;;;;;;98.85;21.63;;;-6.90;99.90;;;;;;5060560;28;20017;-68
2024/01/19 05:01:24;;;;;;;137.68;26.88;;;-6.90;99.90;;;;;;5059520;28;20028;-68
2024/01/19 05:03:50;;;;;;;133.02;26.95;;;-7.20;99.90;;;;;;5060746;28;20032;-68
2024/01/19 05:06:15;;;;;;;98.13;24.27;;;-7.30;99.90;;;;;;5059841;28;20024;-68
2024/01/19 05:08:41;;;;;;;115.40;27.98;;;-7.30;99.90;;;;;;5059775;28;20036;-68
2024/01/19 05:11:07;;;;;;;99.53;25.55;;;-7.20;99.90;;;;;;5059505;28;20025;-68
2024/01/19 05:13:33;;;;;;;94.10;22.38;;;-7.30;99.90;;;;;;5059335;28;20024;-69
2024/01/19 05:15:58;;;;;;;93.35;22.85;;;-7.20;99.90;;;;;;5060262;28;20025;-68
2024/01/19 05:18:24;;;;;;;81.03;22.92;;;-7.30;99.90;;;;;;5059347;28;20079;-68
2024/01/19 05:20:49;;;;;;;77.90;23.13;;;-7.30;99.90;;;;;;5059130;28;20033;-68
2024/01/19 05:23:15;;;;;;;64.05;18.65;;;-7.20;99.90;;;;;;5060514;28;20025;-68
2024/01/19 05:25:41;;;;;;;53.08;17.60;;;-7.10;99.90;;;;;;5059253;28;20022;-68
2024/01/19 05:28:06;;;;;;;57.28;19.20;;;-6.90;99.90;;;;;;5060192;28;20021;-68
2024/01/19 05:30:32;;;;;;;55.70;17.83;;;-7.00;99.90;;;;;;5059798;28;20029;-68
2024/01/19 05:32:57;;;;;;;61.78;17.33;;;-7.10;99.90;;;;;;5059130;28;20024;-68
2024/01/19 05:35:23;;;;;;;66.25;21.08;;;-6.90;99.90;;;;;;5059270;28;20032;-68
2024/01/19 05:37:48;;;;;;;71.10;18.10;;;-6.90;99.90;;;;;;5058981;28;20024;-68
2024/01/19 05:40:14;;;;;;;61.50;18.08;;;-7.00;99.90;;;;;;5059681;28;20116;-68
2024/01/19 05:42:40;;;;;;;62.20;18.77;;;-7.20;99.90;;;;;;5058884;28;20075;-68
2024/01/19 05:45:06;;;;;;;75.68;19.25;;;-7.50;99.90;;;;;;5058896;28;20017;-68
2024/01/19 05:47:31;;;;;;;60.45;18.50;;;-7.70;99.90;;;;;;5058187;28;20067;-68
2024/01/19 05:49:57;;;;;;;57.72;17.92;;;-7.80;99.90;;;;;;5059748;28;20025;-68
2024/01/19 05:52:23;;;;;;;66.53;19.00;;;-7.60;99.90;;;;;;5059366;28;20020;-70
2024/01/19 05:54:49;;;;;;;78.28;22.77;;;-7.40;99.90;;;;;;5058862;28;20025;-71
2024/01/19 05:57:15;;;;;;;64.25;20.45;;;-7.20;99.90;;;;;;5059717;28;20029;-69
2024/01/19 05:59:40;;;;;;;65.28;18.10;;;-6.90;99.90;;;;;;5059061;28;20051;-70
2024/01/19 06:02:06;;;;;;;82.15;21.67;;;-6.60;99.90;;;;;;5059094;28;20021;-69
2024/01/19 06:04:38;;;;;;;63.55;19.23;;;-6.40;99.90;;;;;;5059205;28;20036;-69
2024/01/19 06:07:04;;;;;;;;;;;-6.40;99.90;;;;;;5058936;28;20159;-70
2024/01/19 06:09:30;;;;;;;74.00;20.83;;;-6.40;99.90;;;;;;5058693;28;19946;-70
2024/01/19 06:11:55;;;;;;;62.75;19.73;;;-6.10;99.90;;;;;;5058244;28;20021;-69
2024/01/19 06:14:21;;;;;;;63.95;18.15;;;-6.00;99.90;;;;;;5059197;28;20060;-69
2024/01/19 06:16:46;;;;;;;73.30;19.70;;;-6.10;99.90;;;;;;5058842;28;20043;-69
2024/01/19 06:19:12;;;;;;;72.53;21.65;;;-6.00;99.90;;;;;;5059055;28;20055;-70
2024/01/19 06:21:38;;;;;;;72.90;20.65;;;-6.30;99.90;;;;;;5058240;28;20021;-69
2024/01/19 06:24:03;;;;;;;64.47;22.30;;;-6.50;99.90;;;;;;5058144;28;20079;-70
2024/01/19 06:26:32;;;;;;;66.90;20.45;;;-6.40;99.90;;;;;;5058305;28;20017;-70
2024/01/19 06:29:00;;;;;;;73.45;21.10;;;-6.30;99.90;;;;;;5058192;28;20021;-70
2024/01/19 06:31:26;;;;;;;79.28;20.40;;;-6.70;99.90;;;;;;5058085;28;20044;-70
2024/01/19 06:33:51;;;;;;;71.50;18.17;;;-6.60;99.90;;;;;;5058181;28;20029;-69
2024/01/19 06:36:17;;;;;;;69.13;19.02;;;-6.60;99.90;;;;;;5058455;28;20047;-70
2024/01/19 06:38:43;;;;;;;87.68;18.90;;;-6.50;99.90;;;;;;5058169;28;20017;-69
2024/01/19 06:41:08;;;;;;;78.60;19.15;;;-6.40;99.90;;;;;;5057552;28;20132;-70
2024/01/19 06:43:34;;;;;;;66.57;20.13;;;-6.30;99.90;;;;;;5057763;28;20020;-69
2024/01/19 06:45:59;;;;;;;79.03;19.45;;;-6.30;99.90;;;;;;5057654;28;20028;-69
2024/01/19 06:48:25;;;;;;;74.53;19.45;;;-6.40;99.90;;;;;;5058855;28;20021;-69
2024/01/19 06:50:50;;;;;;;69.63;18.55;;;-6.30;99.90;;;;;;5058000;28;20088;-69
2024/01/19 06:53:16;;;;;;;65.55;19.85;;;-6.20;99.90;;;;;;5058369;28;20025;-69
2024/01/19 06:55:41;;;;;;;59.53;19.58;;;-5.90;99.90;;;;;;5057719;28;20025;-68
2024/01/19 06:58:07;;;;;;;57.05;18.70;;;-5.60;99.90;;;;;;5056651;28;20028;-69
2024/01/19 07:00:32;;;;;;;60.28;18.27;;;-5.50;99.90;;;;;;5057416;28;20033;-68
2024/01/19 07:02:59;;;;;;;71.93;20.00;;;-5.60;99.90;;;;;;5057464;28;20108;-68
2024/01/19 07:05:25;;;;;;;62.55;18.92;;;-6.10;99.90;;;;;;5058090;28;20025;-69
2024/01/19 07:07:51;;;;;;;55.97;18.63;;;-6.40;99.90;;;;;;5058547;28;20025;-69
2024/01/19 07:10:16;;;;;;;70.40;20.27;;;-6.50;99.90;;;;;;5057367;28;20032;-69
2024/01/19 07:12:42;;;;;;;62.72;18.73;;;-6.80;99.90;;;;;;5058076;28;20086;-69
2024/01/19 07:15:07;;;;;;;49.88;17.20;;;-6.80;99.90;;;;;;5057163;28;20028;-68
2024/01/19 07:17:33;;;;;;;45.97;15.30;;;-6.70;99.90;;;;;;5058090;28;20074;-68
2024/01/19 07:20:00;;;;;;;41.22;13.75;;;-6.40;99.90;;;;;;5058257;28;20029;-67
2024/01/19 07:22:27;;;;;;;35.30;12.40;;;-5.90;99.90;;;;;;5056943;28;20032;-67
2024/01/19 07:24:52;;;;;;;39.50;13.32;;;-5.80;99.90;;;;;;5057792;28;20032;-68
2024/01/19 07:27:18;;;;;;;40.95;13.75;;;-5.80;99.90;;;;;;5057857;28;20021;-67
2024/01/19 07:29:43;;;;;;;44.53;15.13;;;-6.10;99.90;;;;;;5057704;28;20036;-69
2024/01/19 07:32:09;;;;;;;41.15;14.10;;;-6.20;99.90;;;;;;5056813;28;20028;-68
2024/01/19 07:34:34;;;;;;;32.97;11.52;;;-6.50;99.90;;;;;;5057753;28;20103;-68
2024/01/19 07:37:00;;;;;;;31.75;12.40;;;-6.50;99.90;;;;;;5056652;28;20017;-68
2024/01/19 07:39:26;;;;;;;34.40;13.38;;;-6.20;99.90;;;;;;5057576;28;20088;-68
2024/01/19 07:41:51;;;;;;;47.88;14.65;;;-6.00;99.90;;;;;;5057157;28;20043;-68
2024/01/19 07:44:17;;;;;;;35.65;13.70;;;-5.70;99.90;;;;;;5057718;28;20029;-68
2024/01/19 07:46:44;;;;;;;38.30;12.50;;;-5.60;99.90;;;;;;5057714;28;20096;-68
2024/01/19 07:49:11;;;;;;;43.70;14.88;;;-5.60;99.90;;;;;;5057698;28;20049;-68
2024/01/19 07:51:37;;;;;;;37.22;15.13;;;-5.30;99.90;;;;;;5057352;28;20059;-68
2024/01/19 07:54:03;;;;;;;44.72;14.48;;;-5.20;99.90;;;;;;5057357;28;20028;-68
2024/01/19 07:56:28;;;;;;;51.70;15.52;;;-5.40;99.90;;;;;;5057329;28;20025;-69
2024/01/19 07:58:54;;;;;;;42.47;15.57;;;-5.60;99.90;;;;;;5057207;28;20027;-69
2024/01/19 08:01:19;;;;;;;57.03;17.63;;;-5.70;99.90;;;;;;5056796;28;20021;-68
2024/01/19 08:03:45;;;;;;;52.80;17.52;;;-5.90;99.90;;;;;;5056240;28;20017;-69
2024/01/19 08:06:11;;;;;;;58.15;17.15;;;-5.90;99.90;;;;;;5057532;28;20021;-68
2024/01/19 08:08:36;;;;;;;52.80;17.23;;;-6.00;99.90;;;;;;5057067;28;20162;-68
2024/01/19 08:11:02;;;;;;;66.80;18.40;;;-6.00;99.90;;;;;;5056825;28;20033;-68
2024/01/19 08:13:27;;;;;;;53.28;16.27;;;-5.70;99.90;;;;;;5057315;28;20048;-68
2024/01/19 08:15:53;;;;;;;49.55;16.10;;;-5.60;99.90;;;;;;5056098;28;20033;-68
2024/01/19 08:18:18;;;;;;;46.60;15.98;;;-5.50;99.90;;;;;;5056924;28;20028;-68
2024/01/19 08:20:44;;;;;;;53.67;16.42;;;-5.40;99.90;;;;;;5056071;28;20025;-69
2024/01/19 08:23:10;;;;;;;64.38;17.58;;;-5.10;99.90;;;;;;5055978;28;20029;-69
2024/01/19 08:25:36;;;;;;;53.38;15.43;;;-4.90;99.90;;;;;;5056361;28;20060;-68
2024/01/19 08:28:01;;;;;;;55.95;16.55;;;-4.70;99.90;;;;;;5057430;28;20044;-68
2024/01/19 08:30:27;;;;;;;52.40;15.70;;;-4.70;99.90;;;;;;5057368;28;20076;-68
2024/01/19 08:32:53;;;;;;;59.28;19.02;;;-4.60;99.90;;;;;;5055922;28;20056;-69
2024/01/19 08:35:18;;;;;;;45.53;15.45;;;-4.40;99.90;;;;;;5055832;28;20025;-68
2024/01/19 08:37:44;;;;;;;51.92;15.90;;;-4.30;99.90;;;;;;5056664;28;20032;-69
2024/01/19 08:40:11;;;;;;;54.75;17.75;;;-4.20;99.90;;;;;;5055784;28;20032;-69
2024/01/19 08:42:38;;;;;;;51.05;17.17;;;-4.10;99.90;;;;;;5056692;28;20037;-68
2024/01/19 08:45:04;;;;;;;41.40;15.52;;;-4.20;99.90;;;;;;5056620;28;20032;-69
2024/01/19 08:47:30;;;;;;;51.05;18.02;;;-4.10;99.90;;;;;;5055843;28;20025;-68
2024/01/19 08:49:56;;;;;;;56.45;17.45;;;-4.00;99.90;;;;;;5056710;28;20024;-69
2024/01/19 08:52:22;;;;;;;58.78;16.13;;;-3.90;99.90;;;;;;5056138;28;20026;-69
2024/01/19 08:54:47;;;;;;;62.65;18.92;;;-3.80;99.90;;;;;;5056677;28;20107;-69
2024/01/19 08:57:13;;;;;;;57.10;17.58;;;-3.70;99.90;;;;;;5056769;28;20032;-69
2024/01/19 08:59:39;;;;;;;55.38;16.70;;;-3.60;99.90;;;;;;5055672;28;20025;-68
2024/01/19 09:02:05;;;;;;;60.28;18.80;;;-3.40;99.90;;;;;;5056575;28;20021;-69
2024/01/19 09:04:32;;;;;;;56.78;17.80;;;-3.30;99.90;;;;;;5055925;28;20064;-69
2024/01/19 09:06:57;;;;;;;63.10;18.25;;;-3.30;99.90;;;;;;5055852;28;20024;-69
2024/01/19 09:09:23;;;;;;;58.70;20.17;;;-3.50;99.90;;;;;;5056511;28;20029;-69
2024/01/19 09:11:49;;;;;;;66.93;20.92;;;-3.70;99.90;;;;;;5055556;28;20021;-69
2024/01/19 09:14:15;;;;;;;57.25;18.10;;;-3.70;99.90;;;;;;5056494;28;20045;-69
2024/01/19 09:16:44;;;;;;;54.58;16.75;;;-3.60;99.90;;;;;;5056426;28;20025;-69
2024/01/19 09:19:11;;;;;;;52.00;16.65;;;-3.70;99.90;;;;;;5056082;28;20107;-69
2024/01/19 09:21:37;;;;;;;49.72;18.25;;;-3.70;99.90;;;;;;5057214;28;20086;-68
2024/01/19 09:24:03;;;;;;;52.38;16.92;;;-4.00;99.90;;;;;;5060330;28;20111;-69
2024/01/19 09:26:28;;;;;;;48.38;16.27;;;-4.00;99.90;;;;;;5059213;28;20022;-68
2024/01/19 09:28:54;;;;;;;62.63;17.73;;;-3.90;99.90;;;;;;5059314;28;20025;-69
2024/01/19 09:31:20;;;;;;;54.13;17.60;;;-3.60;99.90;;;;;;5060521;28;20021;-69
2024/01/19 09:33:46;;;;;;;53.10;18.48;;;-3.50;99.90;;;;;;5060520;28;20017;-69
2024/01/19 09:36:11;;;;;;;60.97;18.13;;;-3.60;99.90;;;;;;5060108;28;20034;-69
2024/01/19 09:38:37;;;;;;;55.58;20.15;;;-3.40;99.90;;;;;;5059924;28;20021;-69
2024/01/19 09:41:25;;;;;;;59.47;18.40;;;-3.50;99.90;;;;;;5059004;28;20032;-69
2024/01/19 09:43:54;;;;;;;59.85;16.88;;;-3.50;99.90;;;;;;5060093;28;20021;-68
2024/01/19 09:46:28;;;;;;;59.80;17.60;;;-3.50;99.90;;;;;;5059835;28;20112;-68
2024/01/19 09:49:02;;;;;;;57.28;18.77;;;-3.60;99.90;;;;;;5059568;28;20021;-68
2024/01/19 09:51:55;;;;;;;58.72;19.58;;;-3.40;99.90;;;;;;5059597;28;20080;-69
2024/01/19 09:54:36;;;;;;;57.75;18.67;;;-3.00;99.90;;;;;;5058833;28;20031;-69
2024/01/19 09:57:03;;;;;;;53.15;17.63;;;-2.90;99.90;;;;;;5059893;28;20024;-69
2024/01/19 09:59:33;;;;;;;54.88;18.40;;;-3.00;99.90;;;;;;5059554;28;20028;-69
2024/01/19 10:02:01;;;;;;;54.15;18.25;;;-3.00;99.90;;;;;;5059813;28;20051;-69
2024/01/19 10:04:28;;;;;;;50.08;18.42;;;-3.10;99.90;;;;;;5059332;28;20112;-69
2024/01/19 10:06:54;;;;;;;64.35;18.75;;;-2.90;99.90;;;;;;5059365;28;20028;-69
2024/01/19 10:09:22;;;;;;;55.13;18.65;;;-2.80;99.90;;;;;;5058506;28;20021;-69
2024/01/19 10:11:51;;;;;;;54.60;18.50;;;-2.60;99.90;;;;;;5059785;28;20029;-68
2024/01/19 10:14:18;;;;;;;52.90;18.05;;;-2.50;99.90;;;;;;5059350;28;20104;-69
2024/01/19 10:16:43;;;;;;;56.92;19.33;;;-2.40;99.90;;;;;;5059168;28;20055;-69
2024/01/19 10:19:12;;;;;;;55.42;18.35;;;-2.30;99.90;;;;;;5059287;28;20032;-69
2024/01/19 10:21:39;;;;;;;50.90;18.85;;;-2.30;99.90;;;;;;5059340;28;20029;-69
2024/01/19 10:24:09;;;;;;;49.25;18.02;;;-2.20;99.90;;;;;;5058520;28;20033;-69
2024/01/19 10:26:39;;;;;;;57.90;18.70;;;-2.10;99.90;;;;;;5058962;28;20017;-68
2024/01/19 10:29:12;;;;;;;54.15;17.40;;;-2.30;99.90;;;;;;5059002;28;20076;-68
2024/01/19 10:31:38;;;;;;;48.83;16.30;;;-2.20;99.90;;;;;;5058906;28;20023;-68
2024/01/19 10:34:04;;;;;;;50.75;16.40;;;-2.10;99.90;;;;;;5057895;28;20079;-69
2024/01/19 10:36:38;;;;;;;59.25;17.92;;;-2.10;99.90;;;;;;5059208;28;20032;-68
2024/01/19 10:39:24;;;;;;;44.42;17.08;;;-2.10;99.90;;;;;;5058656;28;20064;-70
2024/01/19 10:41:51;;;;;;;49.72;16.88;;;-2.00;99.90;;;;;;5058545;28;20032;-69
2024/01/19 10:44:20;;;;;;;52.35;17.25;;;-2.00;99.90;;;;;;5058344;28;20061;-69
2024/01/19 10:46:47;;;;;;;48.35;17.50;;;-2.20;99.90;;;;;;5057739;28;20052;-68
2024/01/19 10:49:16;;;;;;;50.10;17.23;;;-2.10;99.90;;;;;;5058473;28;20025;-68
2024/01/19 10:51:43;;;;;;;44.75;16.13;;;-2.10;99.90;;;;;;5058316;28;20013;-68
2024/01/19 10:54:15;;;;;;;44.53;15.30;;;-1.90;99.90;;;;;;5058563;28;20024;-69
2024/01/19 10:56:42;;;;;;;47.47;17.27;;;-1.80;99.90;;;;;;5058706;28;20021;-69
2024/01/19 10:59:12;;;;;;;51.70;16.80;;;-1.60;99.90;;;;;;5057615;28;20059;-69
2024/01/19 11:01:39;;;;;;;56.38;18.05;;;-1.40;99.90;;;;;;5057223;28;20030;-69
2024/01/19 11:04:09;;;;;;;49.50;17.48;;;-1.30;99.90;;;;;;5058181;28;20021;-69
2024/01/19 11:06:38;;;;;;;51.45;17.92;;;-1.30;99.90;;;;;;5058332;28;20043;-68
2024/01/19 11:09:08;;;;;;;48.05;17.98;;;-1.30;99.90;;;;;;5058199;28;20025;-69
2024/01/19 11:11:39;;;;;;;48.85;17.23;;;-1.20;99.90;;;;;;5058084;28;20039;-68
2024/01/19 11:14:07;;;;;;;42.40;15.07;;;-1.10;99.90;;;;;;5057232;28;20024;-68
2024/01/19 11:16:43;;;;;;;42.55;15.35;;;-0.70;99.90;;;;;;5058080;28;20032;-69
2024/01/19 11:19:09;;;;;;;48.03;16.77;;;-0.50;99.90;;;;;;5057266;28;20033;-68
2024/01/19 11:21:35;;;;;;;45.80;17.02;;;-0.50;99.90;;;;;;5057885;28;20024;-69
2024/01/19 11:24:04;;;;;;;38.92;14.82;;;-0.40;99.90;;;;;;5056885;28;20024;-68
2024/01/19 11:26:45;;;;;;;37.63;15.40;;;-0.30;99.90;;;;;;5058423;28;20025;-67
2024/01/19 11:29:25;;;;;;;47.65;16.27;;;-0.40;99.90;;;;;;5057758;28;20024;-68
2024/01/19 11:31:51;;;;;;;52.03;15.60;;;-0.70;99.90;;;;;;5057958;28;20052;-68
2024/01/19 11:34:39;;;;;;;43.53;16.70;;;-0.70;99.90;;;;;;5058016;28;20075;-68
2024/01/19 11:37:05;;;;;;;43.45;16.88;;;-0.70;99.90;;;;;;5057981;28;20017;-67
2024/01/19 11:39:41;;;;;;;45.22;16.75;;;-0.60;99.90;;;;;;5056742;28;20028;-68
2024/01/19 11:42:27;;;;;;;42.10;15.18;;;-0.50;99.90;;;;;;5057730;28;20017;-68
2024/01/19 11:44:53;;;;;;;49.70;16.40;;;-0.60;99.90;;;;;;5056308;28;20040;-68
2024/01/19 11:47:42;;;;;;;45.33;16.00;;;-0.60;99.90;;;;;;5057390;28;20030;-68
2024/01/19 11:50:13;;;;;;;42.25;15.55;;;-0.50;99.90;;;;;;5054574;28;20025;-70
2024/01/19 11:52:40;;;;;;;41.88;16.13;;;-0.40;99.90;;;;;;5056471;28;20027;-68
2024/01/19 11:55:28;;;;;;;44.38;15.48;;;-0.30;99.90;;;;;;5057516;28;20111;-68
2024/01/19 11:57:54;;;;;;;42.10;15.02;;;-0.20;99.90;;;;;;5057644;28;20028;-68
2024/01/19 12:00:20;;;;;;;47.65;15.98;;;-0.20;99.90;;;;;;5057567;28;20036;-68
2024/01/19 12:02:49;;;;;;;42.88;15.02;;;-0.10;99.90;;;;;;5057197;28;20029;-68
2024/01/19 12:05:20;;;;;;;50.63;16.98;;;-0.10;99.90;;;;;;5056284;28;20091;-68
2024/01/19 12:07:45;;;;;;;44.42;15.82;;;-0.30;99.90;;;;;;5057172;28;20043;-68
2024/01/19 12:10:15;;;;;;;47.15;17.10;;;-0.20;99.90;;;;;;5056399;28;20032;-68
2024/01/19 12:12:40;;;;;;;50.15;16.98;;;-0.10;99.90;;;;;;5056134;28;20028;-67
2024/01/19 12:15:08;;;;;;;47.05;17.08;;;-0.20;99.90;;;;;;5056156;28;20021;-67
2024/01/19 12:17:36;;;;;;;41.78;16.52;;;-0.20;99.90;;;;;;5056424;28;20025;-67
2024/01/19 12:20:02;;;;;;;47.25;17.48;;;-0.20;99.90;;;;;;5057370;28;20036;-67
2024/01/19 12:22:27;;;;;;;45.60;16.75;;;-0.10;99.90;;;;;;5056101;28;20025;-68
2024/01/19 12:25:15;;;;;;;51.92;16.02;;;-0.10;99.90;;;;;;5056111;28;20122;-67
2024/01/19 12:27:41;;;;;;;43.47;16.42;;;0.00;99.90;;;;;;5056476;28;20021;-67